Time;durP1;ratioP1;P1;durP2;ratioP2;P2;SDS_P1;SDS_P2;PMS_P1;PMS_P2;Temp;Humidity;BMP_temperature;BMP_pressure;BME280_temperature;BME280_humidity;BME280_pressure;Samples;Min_cycle;Max_cycle;Signal;HPM_P1;HPM_P2
2023/10/28 00:03:13;;;;;;;17.07;10.33;;;;;;;8.88;100.00;98850.63;4903823;58;1141117;-73
2023/10/28 00:08:18;;;;;;;17.07;11.33;;;;;;;8.89;100.00;98851.80;4759185;59;1140849;-71
2023/10/28 00:13:24;;;;;;;15.93;11.22;;;;;;;8.87;100.00;98852.43;4955899;57;1141059;-75
2023/10/28 00:18:30;;;;;;;25.27;14.53;;;;;;;8.83;100.00;98858.17;4811561;59;1140834;-74
2023/10/28 00:23:36;;;;;;;16.97;10.90;;;;;;;8.81;100.00;98855.68;4915948;58;1140825;-73
2023/10/28 00:28:41;;;;;;;13.70;9.77;;;;;;;8.80;100.00;98853.53;4791920;58;1141051;-74
2023/10/28 00:33:50;;;;;;;16.73;10.30;;;;;;;8.80;100.00;98857.48;4931399;58;1139292;-73
2023/10/28 00:38:55;;;;;;;16.65;11.48;;;;;;;8.83;100.00;98867.40;4990498;58;1141047;-73
2023/10/28 00:44:01;;;;;;;17.50;11.17;;;;;;;8.83;100.00;98860.80;4986238;58;1141171;-74
2023/10/28 00:49:07;;;;;;;17.63;12.83;;;;;;;8.84;100.00;98859.34;5010441;57;1140946;-74
2023/10/28 00:54:13;;;;;;;20.80;11.97;;;;;;;8.85;100.00;98861.49;4994416;57;1141188;-71
2023/10/28 00:59:19;;;;;;;14.30;10.13;;;;;;;8.83;100.00;98864.27;4986891;57;1140977;-72
2023/10/28 01:04:25;;;;;;;15.53;9.63;;;;;;;8.80;100.00;98861.92;4937186;58;1140815;-75
2023/10/28 01:09:30;;;;;;;18.33;11.60;;;;;;;8.81;100.00;98868.38;4935224;57;1138525;-72
2023/10/28 01:14:36;;;;;;;16.37;9.53;;;;;;;8.71;100.00;98868.06;4793141;59;1141147;-70
2023/10/28 01:19:41;;;;;;;17.03;10.33;;;;;;;8.64;100.00;98868.33;4789534;59;1138988;-72
2023/10/28 01:24:49;;;;;;;19.15;9.90;;;;;;;8.61;100.00;98876.52;4810273;59;1141060;-71
2023/10/28 01:29:55;;;;;;;17.34;9.56;;;;;;;8.60;100.00;98877.50;4911392;58;1138978;-74
2023/10/28 01:35:02;;;;;;;11.67;8.87;;;;;;;8.59;100.00;98873.20;4780957;59;1138893;-73
2023/10/28 01:40:16;;;;;;;18.93;9.40;;;;;;;8.57;100.00;98881.73;4810515;60;1138548;-73
2023/10/28 01:45:22;;;;;;;17.17;10.60;;;;;;;8.54;100.00;98875.47;4910438;58;1138978;-73
2023/10/28 01:50:28;;;;;;;10.78;9.00;;;;;;;8.53;100.00;98875.95;4792686;60;1140679;-73
2023/10/28 01:55:34;;;;;;;8.00;7.03;;;;;;;8.54;100.00;98874.98;4931188;58;1139122;-73
2023/10/28 02:00:40;;;;;;;14.75;8.20;;;;;;;8.48;100.00;98886.09;4944868;57;1145091;-73
2023/10/28 02:05:45;;;;;;;11.00;8.15;;;;;;;8.41;100.00;98888.45;4956671;57;1138695;-73
2023/10/28 02:10:51;;;;;;;20.65;8.83;;;;;;;8.36;100.00;98888.09;4848656;58;1138765;-72
2023/10/28 02:15:58;;;;;;;14.10;9.20;;;;;;;8.34;100.00;98887.88;4894925;58;1138908;-70
2023/10/28 02:21:04;;;;;;;14.80;8.30;;;;;;;8.32;100.00;98885.88;4898784;58;1138841;-71
2023/10/28 02:26:10;;;;;;;13.73;8.17;;;;;;;8.29;100.00;98894.03;4931858;58;1139069;-71
2023/10/28 02:31:16;;;;;;;14.43;8.83;;;;;;;8.23;100.00;98889.36;4916114;58;1138801;-75
2023/10/28 02:36:21;;;;;;;14.73;9.07;;;;;;;8.24;100.00;98888.39;4943997;57;1138800;-74
2023/10/28 02:41:28;;;;;;;15.00;9.47;;;;;;;8.27;100.00;98892.02;4987431;57;1138768;-74
2023/10/28 02:46:40;;;;;;;12.23;8.73;;;;;;;8.28;100.00;98893.69;4994168;57;1138842;-76
2023/10/28 02:51:56;;;;;;;11.40;8.55;;;;;;;8.32;100.00;98896.41;4810599;58;1138945;-72
2023/10/28 02:57:02;;;;;;;18.40;9.67;;;;;;;8.37;100.00;98912.63;4903929;58;1138801;-73
2023/10/28 03:02:08;;;;;;;10.87;8.67;;;;;;;8.36;100.00;98913.59;4917975;58;1138806;-73
2023/10/28 03:07:13;;;;;;;16.13;8.83;;;;;;;8.39;100.00;98923.85;4753295;59;1138955;-72
2023/10/28 03:12:19;;;;;;;12.67;8.53;;;;;;;8.35;100.00;98923.30;4790372;59;1138917;-74
2023/10/28 03:17:24;;;;;;;16.57;9.33;;;;;;;8.32;100.00;98931.48;4792574;59;1139117;-72
2023/10/28 03:22:30;;;;;;;10.77;8.43;;;;;;;8.27;100.00;98932.36;4809808;59;1138906;-72
2023/10/28 03:27:35;;;;;;;13.63;9.50;;;;;;;8.25;100.00;98936.94;4789743;60;1138810;-73
2023/10/28 03:32:41;;;;;;;15.90;9.83;;;;;;;8.21;100.00;98936.06;4790101;60;1139021;-72
2023/10/28 03:37:47;;;;;;;14.35;10.10;;;;;;;8.19;100.00;98933.58;4788121;59;1139648;-74
2023/10/28 03:42:53;;;;;;;14.58;9.35;;;;;;;8.21;100.00;98937.39;4788805;59;1140869;-74
2023/10/28 03:47:59;;;;;;;16.40;10.57;;;;;;;8.22;100.00;98942.52;4868738;59;1139027;-75
2023/10/28 03:53:04;;;;;;;13.97;10.70;;;;;;;8.27;100.00;98948.16;4838918;59;1141499;-70
2023/10/28 03:58:10;;;;;;;16.00;10.43;;;;;;;8.31;100.00;98936.86;4909105;57;1141164;-72
2023/10/28 04:03:16;;;;;;;12.83;10.33;;;;;;;8.31;100.00;98936.86;4791888;57;1141001;-74
2023/10/28 04:08:23;;;;;;;16.67;11.23;;;;;;;8.32;100.00;98931.97;4791234;59;1141019;-71
2023/10/28 04:13:29;;;;;;;14.53;10.27;;;;;;;8.36;100.00;98942.09;4928740;58;1140970;-73
2023/10/28 04:18:34;;;;;;;14.13;10.77;;;;;;;8.35;100.00;98944.86;4758090;60;1140874;-71
2023/10/28 04:23:41;;;;;;;15.27;11.20;;;;;;;8.31;100.00;98939.02;4739836;59;1140911;-74
2023/10/28 04:28:46;;;;;;;12.95;10.30;;;;;;;8.28;100.00;98941.92;4774943;59;1141267;-75
2023/10/28 04:33:52;;;;;;;14.43;10.18;;;;;;;8.28;100.00;98937.97;4789049;59;1140827;-74
2023/10/28 04:38:58;;;;;;;16.97;11.57;;;;;;;8.32;100.00;98940.70;4709997;60;1141952;-72
2023/10/28 04:44:04;;;;;;;15.73;10.73;;;;;;;8.32;100.00;98938.55;4919995;57;1140903;-71
2023/10/28 04:49:15;;;;;;;17.43;12.13;;;;;;;8.39;100.00;98937.02;4792238;60;1141280;-72
2023/10/28 04:54:17;;;;;;;17.67;12.50;;;;;;;8.41;100.00;98940.31;4964441;58;1140828;-73
2023/10/28 04:59:23;;;;;;;22.40;12.75;;;;;;;8.38;100.00;98948.05;4790729;60;1140808;-74
2023/10/28 05:04:29;;;;;;;25.30;11.83;;;;;;;8.38;100.00;98946.73;4795907;59;1141464;-75
2023/10/28 05:09:36;;;;;;;20.43;11.80;;;;;;;8.42;100.00;98950.72;4784267;59;1140863;-71
2023/10/28 05:14:42;;;;;;;22.35;11.80;;;;;;;8.44;100.00;98956.67;4924044;58;1140985;-75
2023/10/28 05:19:48;;;;;;;22.90;10.85;;;;;;;8.46;100.00;98958.68;4927672;57;1141050;-74
2023/10/28 05:24:54;;;;;;;24.50;10.70;;;;;;;8.48;100.00;98959.03;4913653;57;1140956;-75
2023/10/28 05:30:00;;;;;;;14.73;11.43;;;;;;;8.51;100.00;98970.12;4847271;58;1140870;-74
2023/10/28 05:35:08;;;;;;;18.20;11.13;;;;;;;8.49;100.00;98969.91;4741013;60;1140805;-73
2023/10/28 05:40:13;;;;;;;24.35;11.30;;;;;;;8.45;100.00;98977.27;4752927;59;1141013;-76
2023/10/28 05:45:20;;;;;;;20.80;10.70;;;;;;;8.40;100.00;98978.20;4799283;59;1140886;-71
2023/10/28 05:50:27;;;;;;;19.70;13.80;;;;;;;8.38;100.00;98984.92;4791816;60;1141810;-71
2023/10/28 05:55:32;;;;;;;19.53;12.97;;;;;;;8.39;100.00;98993.17;4808867;60;1140884;-71
2023/10/28 06:00:40;;;;;;;20.23;14.47;;;;;;;8.38;100.00;99000.73;4907268;57;1140885;-70
2023/10/28 06:05:45;;;;;;;18.63;13.17;;;;;;;8.39;100.00;99011.62;4788907;59;1140866;-75
2023/10/28 06:10:50;;;;;;;17.37;12.47;;;;;;;8.39;100.00;99022.16;4921136;58;1141084;-75
2023/10/28 06:15:56;;;;;;;24.57;13.83;;;;;;;8.44;100.00;99024.34;4738076;60;1140929;-72
2023/10/28 06:21:03;;;;;;;19.97;13.63;;;;;;;8.44;100.00;99019.91;4722613;60;1141038;-74
2023/10/28 06:26:10;;;;;;;22.10;14.27;;;;;;;8.44;100.00;99025.17;4792141;59;1141048;-72
2023/10/28 06:31:15;;;;;;;17.57;13.27;;;;;;;8.46;100.00;99033.77;4904885;57;1141019;-71
2023/10/28 06:36:21;;;;;;;23.10;14.90;;;;;;;8.46;100.00;99040.36;4910148;57;1140987;-72
2023/10/28 06:41:26;;;;;;;24.90;14.87;;;;;;;8.51;100.00;99043.06;4794684;59;1141624;-74
2023/10/28 06:46:34;;;;;;;23.17;15.93;;;;;;;8.52;100.00;99045.56;4804211;59;1140912;-74
2023/10/28 06:51:39;;;;;;;23.37;15.03;;;;;;;8.53;100.00;99051.17;4927735;57;1140769;-75
2023/10/28 06:56:51;;;;;;;22.30;15.80;;;;;;;8.55;100.00;99053.67;4921746;57;1140977;-71
2023/10/28 07:02:05;;;;;;;30.40;16.63;;;;;;;8.56;100.00;99058.77;4938568;57;1140950;-75
2023/10/28 07:07:14;;;;;;;24.30;17.13;;;;;;;8.52;100.00;99061.85;4786055;58;1141032;-71
2023/10/28 07:12:18;;;;;;;29.17;18.43;;;;;;;8.49;100.00;99060.33;4901689;57;1140922;-73
2023/10/28 07:17:23;;;;;;;24.73;15.90;;;;;;;8.49;100.00;99068.72;4792444;59;1140922;-77
2023/10/28 07:22:31;;;;;;;26.37;17.03;;;;;;;8.51;100.00;99060.19;4925587;57;1141874;-71
2023/10/28 07:27:37;;;;;;;29.93;20.37;;;;;;;8.53;100.00;99070.11;4904190;57;1141241;-73
2023/10/28 07:32:42;;;;;;;35.90;20.60;;;;;;;8.53;100.00;99073.58;4909341;57;1141195;-74
2023/10/28 07:37:48;;;;;;;34.37;21.40;;;;;;;8.56;100.00;99084.29;4808582;59;1141044;-73
2023/10/28 07:42:54;;;;;;;37.40;22.95;;;;;;;8.59;100.00;99085.33;4660802;61;1140995;-72
2023/10/28 07:47:59;;;;;;;37.93;23.25;;;;;;;8.63;100.00;99088.87;4703259;60;1140933;-75
2023/10/28 07:53:05;;;;;;;29.13;18.43;;;;;;;8.67;100.00;99089.42;4983062;58;1140763;-72
2023/10/28 07:58:11;;;;;;;32.73;20.67;;;;;;;8.68;100.00;99094.56;4991715;57;1140964;-73
2023/10/28 08:03:18;;;;;;;28.20;17.23;;;;;;;8.75;100.00;99104.03;4935079;57;1141121;-72
2023/10/28 08:08:24;;;;;;;24.47;14.70;;;;;;;8.73;100.00;99114.71;4909423;57;1141026;-74
2023/10/28 08:13:29;;;;;;;21.13;15.03;;;;;;;8.71;100.00;99119.77;4899103;58;1141150;-75
2023/10/28 08:18:35;;;;;;;24.72;14.98;;;;;;;8.68;100.00;99122.72;4757885;59;1141057;-71
2023/10/28 08:23:44;;;;;;;20.07;14.63;;;;;;;8.70;100.00;99123.41;4898422;58;1141101;-74
2023/10/28 08:28:52;;;;;;;21.47;14.60;;;;;;;8.75;100.00;99127.27;4683304;60;1140957;-75
2023/10/28 08:33:58;;;;;;;20.30;13.03;;;;;;;8.80;100.00;99123.73;4904108;58;1140771;-77
2023/10/28 08:39:03;;;;;;;19.80;13.05;;;;;;;8.80;100.00;99141.35;4675366;60;1140847;-74
2023/10/28 08:58:29;;;;;;;20.90;13.87;;;;;;;8.83;100.00;99145.03;5094258;56;46254;-74
2023/10/28 09:03:40;;;;;;;23.30;17.03;;;;;;;8.78;100.00;99165.22;4842352;58;1136863;-72
2023/10/28 09:08:45;;;;;;;42.83;28.97;;;;;;;8.80;100.00;99169.03;4981031;58;1140812;-70
2023/10/28 09:13:50;;;;;;;23.70;14.43;;;;;;;8.87;100.00;99187.25;4852817;57;1140916;-74
2023/10/28 09:18:57;;;;;;;21.53;14.07;;;;;;;8.88;100.00;99196.83;4874081;57;1140789;-75
2023/10/28 09:24:03;;;;;;;37.23;24.40;;;;;;;8.91;100.00;99196.55;4916625;57;1140951;-75
2023/10/28 09:29:09;;;;;;;24.47;14.95;;;;;;;8.91;100.00;99211.05;4971453;57;1141103;-74
2023/10/28 09:34:16;;;;;;;25.70;15.35;;;;;;;8.92;100.00;99214.52;4877580;58;1141140;-74
2023/10/28 09:39:24;;;;;;;31.10;17.45;;;;;;;8.93;100.00;99226.25;5050865;56;1140934;-76
2023/10/28 09:44:30;;;;;;;30.13;18.60;;;;;;;8.90;100.00;99222.57;4901200;58;1141043;-74
2023/10/28 09:49:39;;;;;;;30.47;19.20;;;;;;;8.90;100.00;99221.73;5035180;57;1141009;-76
2023/10/28 09:54:49;;;;;;;47.23;29.60;;;;;;;8.91;100.00;99222.92;5060238;56;1141169;-77
2023/10/28 09:59:56;;;;;;;51.57;33.70;;;;;;;8.96;100.00;99224.66;4917547;58;1143660;-78
2023/10/28 10:05:18;;;;;;;32.77;24.00;;;;;;;9.01;100.00;99229.01;5068913;56;1141197;-74
2023/10/28 10:10:24;;;;;;;34.90;26.43;;;;;;;9.04;100.00;99238.45;5007798;57;1140866;-77
2023/10/28 10:15:35;;;;;;;30.20;19.20;;;;;;;9.04;100.00;99236.64;5087104;56;1140915;-74
2023/10/28 10:20:44;;;;;;;160.17;135.10;;;;;;;9.07;100.00;99228.94;4989391;58;1141110;-75
2023/10/28 10:25:50;;;;;;;24.20;16.60;;;;;;;9.11;100.00;99228.53;5042819;57;1145310;-75
2023/10/28 10:30:59;;;;;;;35.83;26.80;;;;;;;9.15;100.00;99233.88;4932418;57;1140973;-72
2023/10/28 10:36:19;;;;;;;26.68;19.32;;;;;;;9.15;100.00;99231.23;5009741;57;1140864;-76
2023/10/28 10:41:29;;;;;;;21.12;15.88;;;;;;;9.16;100.00;99235.55;4989575;57;1140861;-73
2023/10/28 10:46:35;;;;;;;19.17;14.43;;;;;;;9.17;100.00;99227.11;5043130;57;1141183;-71
2023/10/28 10:51:41;;;;;;;20.43;14.73;;;;;;;9.17;100.00;99229.27;4969003;57;1140880;-75
2023/10/28 10:56:53;;;;;;;23.67;15.47;;;;;;;9.20;100.00;99241.83;5128028;56;1141084;-71
2023/10/28 11:02:00;;;;;;;22.87;14.53;;;;;;;9.20;100.00;99243.98;4968406;57;1141040;-76
2023/10/28 11:07:08;;;;;;;16.52;12.25;;;;;;;9.25;100.00;99245.72;5084371;56;1140832;-71
2023/10/28 11:29:17;;;;;;;19.20;12.77;;;;;;;9.30;100.00;99260.64;5235531;55;46742;-70
2023/10/28 11:34:24;;;;;;;15.57;12.17;;;;;;;9.20;100.00;99276.95;4980729;57;1136694;-74
2023/10/28 11:39:33;;;;;;;14.10;10.53;;;;;;;9.22;100.00;99280.29;4979605;57;1140961;-72
2023/10/28 11:44:37;;;;;;;13.50;10.50;;;;;;;9.19;100.00;99285.84;4959330;57;1140755;-72
2023/10/28 11:49:43;;;;;;;21.00;13.00;;;;;;;9.22;100.00;99293.97;4959611;57;1141086;-71
2023/10/28 11:54:48;;;;;;;18.53;13.00;;;;;;;9.25;100.00;99294.52;4972355;57;1140879;-68
2023/10/28 11:59:54;;;;;;;29.03;17.13;;;;;;;9.26;100.00;99294.88;4950314;57;1140843;-74
2023/10/28 12:05:00;;;;;;;23.63;16.00;;;;;;;9.26;100.00;99293.55;4965702;57;1141151;-74
2023/10/28 12:10:06;;;;;;;40.50;17.35;;;;;;;9.30;100.00;99298.91;5047608;56;1141069;-73
2023/10/28 12:15:12;;;;;;;26.50;17.48;;;;;;;9.25;100.00;99298.48;5016323;57;1140880;-69
2023/10/28 12:20:18;;;;;;;30.02;19.07;;;;;;;9.22;100.00;99295.28;4917895;57;1140732;-73
2023/10/28 12:25:24;;;;;;;28.47;16.90;;;;;;;9.24;100.00;99307.85;4978688;57;1140945;-73
2023/10/28 12:30:30;;;;;;;24.33;16.77;;;;;;;9.26;100.00;99304.11;4947447;57;1140918;-73
2023/10/28 12:35:36;;;;;;;25.97;19.07;;;;;;;9.28;100.00;99308.77;4918652;57;1140896;-71
2023/10/28 12:40:41;;;;;;;23.17;15.73;;;;;;;9.31;100.00;99318.20;4962387;57;1141103;-74
2023/10/28 12:45:47;;;;;;;26.70;17.10;;;;;;;9.34;100.00;99322.69;4980788;57;1140922;-71
2023/10/28 12:50:53;;;;;;;29.63;17.93;;;;;;;9.33;100.00;99330.26;4981950;56;1140946;-74
2023/10/28 12:55:59;;;;;;;27.80;18.63;;;;;;;9.33;100.00;99334.70;4988040;56;1140990;-74
2023/10/28 13:01:05;;;;;;;28.23;19.00;;;;;;;9.33;100.00;99337.34;4978837;57;1140747;-75
2023/10/28 13:06:10;;;;;;;25.20;16.43;;;;;;;9.31;100.00;99332.23;4961191;56;1140953;-71
2023/10/28 13:11:17;;;;;;;36.13;20.48;;;;;;;9.30;100.00;99330.56;4962052;56;1141434;-73
2023/10/28 13:16:23;;;;;;;30.73;19.70;;;;;;;9.25;100.00;99343.33;4966343;56;1141056;-75
2023/10/28 13:21:28;;;;;;;30.33;20.13;;;;;;;9.25;100.00;99357.01;4945350;57;1140988;-74
2023/10/28 13:26:34;;;;;;;31.23;18.40;;;;;;;9.22;100.00;99358.11;5006992;56;1140901;-74
2023/10/28 13:31:39;;;;;;;36.07;19.83;;;;;;;9.18;100.00;99357.55;5015492;56;1140935;-75
2023/10/28 13:36:45;;;;;;;34.87;19.63;;;;;;;9.14;100.00;99352.71;4930794;58;1140906;-74
2023/10/28 13:41:51;;;;;;;40.60;21.40;;;;;;;9.13;100.00;99356.32;4979297;57;1140940;-74
2023/10/28 13:46:57;;;;;;;34.92;21.05;;;;;;;9.09;100.00;99366.79;4922947;57;1141108;-71
2023/10/28 13:52:03;;;;;;;35.23;20.70;;;;;;;9.05;100.00;99370.66;4943509;57;1141015;-73
2023/10/28 13:57:09;;;;;;;34.73;21.45;;;;;;;9.01;100.00;99371.93;4984279;57;1141214;-71
2023/10/28 14:02:15;;;;;;;30.63;18.33;;;;;;;9.01;100.00;99371.93;4994081;57;1141199;-71
2023/10/28 14:07:21;;;;;;;29.12;18.92;;;;;;;9.02;100.00;99375.72;5014245;57;1140943;-72
2023/10/28 14:12:28;;;;;;;33.57;18.90;;;;;;;9.02;100.00;99375.72;4954979;57;1140915;-75
2023/10/28 14:17:34;;;;;;;32.53;18.80;;;;;;;9.01;100.00;99385.92;5053056;56;1140930;-72
2023/10/28 14:22:40;;;;;;;27.00;17.87;;;;;;;9.02;100.00;99386.75;4999230;56;1140987;-75
2023/10/28 14:27:45;;;;;;;30.17;17.40;;;;;;;9.02;100.00;99381.00;4994303;56;1140802;-74
2023/10/28 14:32:51;;;;;;;28.33;18.37;;;;;;;8.97;100.00;99388.50;4995818;57;1140994;-74
2023/10/28 14:37:57;;;;;;;28.93;18.70;;;;;;;8.94;100.00;99390.57;4995967;57;1141010;-70
2023/10/28 14:43:03;;;;;;;33.90;19.93;;;;;;;8.94;100.00;99398.00;4942661;57;1140809;-74
2023/10/28 14:48:09;;;;;;;31.42;20.92;;;;;;;8.95;100.00;99398.35;4947081;56;1140812;-73
2023/10/28 14:53:20;;;;;;;32.93;20.70;;;;;;;8.91;100.00;99405.34;4986222;56;1141105;-73
2023/10/28 14:58:21;;;;;;;30.03;19.10;;;;;;;8.89;100.00;99414.70;4931854;58;1141045;-78
2023/10/28 15:03:27;;;;;;;40.03;20.03;;;;;;;8.88;100.00;99418.79;4911202;58;1141250;-76
2023/10/28 15:08:33;;;;;;;27.73;18.97;;;;;;;8.83;100.00;99423.17;4990709;57;1141024;-77
2023/10/28 15:13:40;;;;;;;34.40;20.70;;;;;;;8.83;100.00;99419.70;4998488;57;1140872;-78
2023/10/28 15:18:47;;;;;;;34.83;21.03;;;;;;;8.79;100.00;99425.23;5010400;57;1140958;-75
2023/10/28 15:23:56;;;;;;;31.87;21.00;;;;;;;8.80;100.00;99428.70;4982676;57;1140680;-73
2023/10/28 15:29:01;;;;;;;50.37;29.10;;;;;;;8.79;100.00;99437.58;4914446;58;1141225;-74
2023/10/28 15:34:08;;;;;;;37.07;25.23;;;;;;;8.75;100.00;99437.01;4939008;58;1146397;-76
2023/10/28 15:39:13;;;;;;;60.17;32.88;;;;;;;8.73;100.00;99435.47;4773153;58;1141057;-76
2023/10/28 15:44:19;;;;;;;64.10;34.35;;;;;;;8.72;100.00;99441.70;4831917;59;1141071;-76
2023/10/28 15:49:25;;;;;;;135.37;82.03;;;;;;;8.71;100.00;99438.72;4898730;58;1140873;-76
2023/10/28 15:54:30;;;;;;;42.50;27.07;;;;;;;8.69;100.00;99438.88;4863394;58;1143017;-77
2023/10/28 15:59:36;;;;;;;35.43;24.77;;;;;;;8.72;100.00;99440.39;4876780;58;1140989;-77
2023/10/28 16:04:42;;;;;;;53.50;27.43;;;;;;;8.67;100.00;99446.56;4889968;57;1141248;-72
2023/10/28 16:09:47;;;;;;;49.60;31.00;;;;;;;8.65;100.00;99447.17;4962462;58;1140985;-77
2023/10/28 16:14:53;;;;;;;70.67;43.47;;;;;;;8.66;100.00;99448.84;4867989;57;1140848;-74
2023/10/28 16:19:58;;;;;;;64.93;32.70;;;;;;;8.65;100.00;99441.42;4840301;57;1141229;-78
2023/10/28 16:25:07;;;;;;;76.00;38.60;;;;;;;8.67;100.00;99454.47;4884816;58;1141162;-74
2023/10/28 16:30:12;;;;;;;76.05;38.05;;;;;;;8.67;100.00;99451.35;4832233;58;1141175;-73
2023/10/28 16:35:18;;;;;;;66.20;34.07;;;;;;;8.66;100.00;99460.23;4893302;57;1141132;-71
2023/10/28 16:40:24;;;;;;;71.20;35.47;;;;;;;8.62;100.00;99471.98;4966262;57;1140850;-70
2023/10/28 16:45:29;;;;;;;65.87;34.67;;;;;;;8.60;100.00;99479.67;4906051;58;1140849;-68
2023/10/28 16:50:35;;;;;;;71.30;36.87;;;;;;;8.60;100.00;99488.90;4895071;57;1141148;-71
2023/10/28 16:55:40;;;;;;;78.30;43.80;;;;;;;8.60;100.00;99484.47;4863524;58;1141120;-70
2023/10/28 17:00:46;;;;;;;82.33;42.53;;;;;;;8.62;100.00;99486.97;4948243;57;1140980;-67
2023/10/28 17:05:53;;;;;;;76.33;39.90;;;;;;;8.67;100.00;99484.30;4938410;58;1140924;-70
2023/10/28 17:11:06;;;;;;;81.50;42.27;;;;;;;8.67;100.00;99496.64;4953684;57;1141090;-68
2023/10/28 17:16:12;;;;;;;92.80;44.00;;;;;;;8.63;100.00;99511.05;5014804;56;1141025;-69
2023/10/28 17:21:19;;;;;;;78.37;38.40;;;;;;;8.64;100.00;99516.67;4962017;57;1141021;-70
2023/10/28 17:26:25;;;;;;;112.60;58.27;;;;;;;8.66;100.00;99518.70;4938184;57;1141086;-69
2023/10/28 17:31:30;;;;;;;165.77;67.47;;;;;;;8.68;100.00;99521.56;4957030;57;1143207;-68
2023/10/28 17:36:36;;;;;;;92.43;54.60;;;;;;;8.66;100.00;99523.48;4937594;58;1142993;-68
2023/10/28 17:41:48;;;;;;;226.77;97.07;;;;;;;8.65;100.00;99523.13;4963869;57;1141267;-76
2023/10/28 17:46:49;;;;;;;356.37;143.73;;;;;;;8.67;100.00;99529.11;4956505;57;1144521;-73
2023/10/28 17:51:55;;;;;;;432.07;198.83;;;;;;;8.65;100.00;99524.94;4985046;56;1144953;-73
2023/10/28 17:57:02;;;;;;;189.57;87.87;;;;;;;8.63;100.00;99529.49;5015244;56;1145298;-72
2023/10/28 18:02:08;;;;;;;77.33;42.13;;;;;;;8.62;100.00;99527.34;4944969;57;1143087;-76
2023/10/28 18:07:14;;;;;;;55.03;32.67;;;;;;;8.63;100.00;99531.65;4894491;58;1140980;-75
2023/10/28 18:12:19;;;;;;;64.23;35.40;;;;;;;8.59;100.00;99536.81;4972264;57;1141552;-75
2023/10/28 18:17:28;;;;;;;96.35;47.45;;;;;;;8.55;100.00;99544.66;4985597;57;1140960;-73
2023/10/28 18:22:33;;;;;;;426.43;162.17;;;;;;;8.55;100.00;99555.68;5004820;57;1141051;-72
2023/10/28 18:27:41;;;;;;;105.97;50.77;;;;;;;8.57;100.00;99558.99;4979885;57;1145220;-72
2023/10/28 18:32:46;;;;;;;179.83;78.37;;;;;;;8.58;100.00;99553.59;5003247;56;1143262;-73
2023/10/28 18:37:52;;;;;;;74.77;40.43;;;;;;;8.58;100.00;99547.00;5000872;57;1143338;-71
2023/10/28 18:42:58;;;;;;;171.37;68.23;;;;;;;8.58;100.00;99554.08;4995541;56;1141342;-74
2023/10/28 18:48:03;;;;;;;121.27;57.47;;;;;;;8.58;100.00;99556.72;5040992;57;1143070;-74
2023/10/28 18:53:09;;;;;;;168.27;73.07;;;;;;;8.56;100.00;99543.66;5045971;57;1143249;-77
2023/10/28 18:58:15;;;;;;;68.25;35.58;;;;;;;8.54;100.00;99546.94;5021359;56;1143403;-75
2023/10/28 19:03:20;;;;;;;102.20;48.20;;;;;;;8.54;100.00;99564.55;4950365;57;1140998;-75
2023/10/28 19:08:26;;;;;;;300.50;130.23;;;;;;;8.53;100.00;99568.98;5054847;56;1143161;-72
2023/10/28 19:13:32;;;;;;;115.97;58.33;;;;;;;8.55;100.00;99573.64;4911269;57;1145222;-79
2023/10/28 19:18:38;;;;;;;99.63;52.03;;;;;;;8.58;100.00;99579.95;4989626;57;1142944;-71
2023/10/28 19:23:44;;;;;;;71.43;36.70;;;;;;;8.58;100.00;99585.22;5020693;56;1140935;-73
2023/10/28 19:28:50;;;;;;;143.03;70.50;;;;;;;8.54;100.00;99578.56;4923317;57;1140815;-73
2023/10/28 19:33:56;;;;;;;74.43;40.00;;;;;;;8.53;100.00;99582.16;4911331;57;1142927;-74
2023/10/28 19:39:04;;;;;;;82.53;41.03;;;;;;;8.56;100.00;99591.09;4962335;57;1141152;-75
2023/10/28 19:44:11;;;;;;;90.40;45.30;;;;;;;8.56;100.00;99596.85;4913599;57;1140915;-72
2023/10/28 19:49:18;;;;;;;102.47;51.33;;;;;;;8.56;100.00;99605.59;4926347;57;1140854;-77
2023/10/28 19:54:23;;;;;;;113.52;62.62;;;;;;;8.62;100.00;99610.36;4962616;57;1143070;-76
2023/10/28 19:59:29;;;;;;;138.97;76.60;;;;;;;8.60;100.00;99604.86;4982157;57;1143158;-74
2023/10/28 20:04:34;;;;;;;76.07;43.08;;;;;;;8.60;100.00;99612.29;4962602;56;1143139;-74
2023/10/28 20:09:40;;;;;;;115.57;57.80;;;;;;;8.60;100.00;99615.41;4962516;57;1141022;-76
2023/10/28 20:14:48;;;;;;;108.92;57.50;;;;;;;8.57;100.00;99619.13;4948418;57;1142955;-74
2023/10/28 20:19:53;;;;;;;96.90;52.80;;;;;;;8.56;100.00;99616.14;4957149;56;1142975;-76
2023/10/28 20:24:59;;;;;;;87.70;42.30;;;;;;;8.57;100.00;99616.97;4947637;57;1140867;-74
2023/10/28 20:30:06;;;;;;;107.40;51.60;;;;;;;8.58;100.00;99622.13;4896777;57;1140818;-73
2023/10/28 20:35:12;;;;;;;72.17;39.07;;;;;;;8.63;100.00;99628.33;4974470;57;1149031;-74
2023/10/28 20:40:18;;;;;;;97.47;49.38;;;;;;;8.61;100.00;99624.98;4979395;56;1140871;-73
2023/10/28 20:45:24;;;;;;;59.45;33.42;;;;;;;8.62;100.00;99629.30;4929010;57;1141277;-71
2023/10/28 20:50:31;;;;;;;105.40;54.53;;;;;;;8.62;100.00;99639.84;4946106;57;1140955;-76
2023/10/28 20:55:46;;;;;;;61.63;33.90;;;;;;;8.63;100.00;99635.77;4885932;58;1143037;-76
2023/10/28 21:00:52;;;;;;;69.77;36.47;;;;;;;8.67;100.00;99637.66;4983948;56;1140848;-74
2023/10/28 21:05:59;;;;;;;78.28;41.60;;;;;;;8.70;100.00;99638.25;4956578;57;1140992;-77
2023/10/28 21:11:13;;;;;;;51.93;29.00;;;;;;;8.75;100.00;99640.48;4977622;57;1140806;-76
2023/10/28 21:16:19;;;;;;;96.00;47.73;;;;;;;8.76;100.00;99639.03;4950163;57;1140965;-73
2023/10/28 21:21:24;;;;;;;49.23;26.00;;;;;;;8.77;100.00;99642.03;4939506;57;1141028;-72
2023/10/28 21:26:31;;;;;;;69.25;31.93;;;;;;;8.77;100.00;99646.47;4961116;57;1141100;-72
2023/10/28 21:31:37;;;;;;;49.43;26.00;;;;;;;8.77;100.00;99642.03;4928520;56;1141111;-77
2023/10/28 21:36:43;;;;;;;43.17;24.37;;;;;;;8.79;100.00;99638.78;4925756;57;1141100;-76
2023/10/28 21:41:49;;;;;;;57.03;32.30;;;;;;;8.79;100.00;99633.52;4939463;57;1140948;-73
2023/10/28 21:46:55;;;;;;;35.53;21.90;;;;;;;8.81;100.00;99639.50;4970006;56;1140810;-72
2023/10/28 21:52:02;;;;;;;52.43;29.67;;;;;;;8.81;100.00;99630.75;4958267;57;1141316;-76
2023/10/28 21:57:07;;;;;;;51.03;30.47;;;;;;;8.81;100.00;99630.27;4958754;57;1140987;-76
2023/10/28 22:02:13;;;;;;;60.30;31.20;;;;;;;8.81;100.00;99623.67;4978383;57;1144043;-74
2023/10/28 22:07:19;;;;;;;60.00;30.68;;;;;;;8.83;100.00;99624.87;4959317;57;1141113;-71
2023/10/28 22:12:25;;;;;;;55.05;27.67;;;;;;;8.81;100.00;99619.72;4957941;57;1140948;-74
2023/10/28 22:17:30;;;;;;;26.60;17.30;;;;;;;8.83;100.00;99622.23;4977614;57;1140998;-72
2023/10/28 22:22:36;;;;;;;35.33;19.43;;;;;;;8.83;100.00;99624.87;4958624;57;1140885;-74
2023/10/28 22:27:42;;;;;;;32.03;18.90;;;;;;;8.84;100.00;99634.45;4970832;56;1140841;-74
2023/10/28 22:32:48;;;;;;;32.10;18.70;;;;;;;8.85;100.00;99634.80;4920513;57;1140961;-72
2023/10/28 22:37:54;;;;;;;25.53;16.00;;;;;;;8.87;100.00;99637.28;4962837;56;1140922;-74
2023/10/28 22:42:59;;;;;;;21.50;14.80;;;;;;;8.89;100.00;99644.59;4956259;57;1141144;-71
2023/10/28 22:48:05;;;;;;;28.90;18.77;;;;;;;8.88;100.00;99644.23;4961552;56;1140974;-75
2023/10/28 22:53:11;;;;;;;29.72;18.27;;;;;;;8.91;100.00;99643.98;4944342;57;1141460;-74
2023/10/28 22:58:17;;;;;;;34.58;19.67;;;;;;;8.92;100.00;99650.45;4817307;58;1141213;-72
2023/10/28 23:03:23;;;;;;;31.87;18.92;;;;;;;8.92;100.00;99642.53;4928703;57;1140894;-71
2023/10/28 23:08:28;;;;;;;26.97;17.75;;;;;;;8.94;100.00;99639.77;4934943;56;1140914;-73
2023/10/28 23:13:34;;;;;;;31.43;17.43;;;;;;;8.93;100.00;99642.89;4964322;57;1140754;-72
2023/10/28 23:18:40;;;;;;;106.45;36.65;;;;;;;8.97;100.00;99644.31;4961264;56;1140759;-71
2023/10/28 23:23:46;;;;;;;25.02;17.23;;;;;;;9.01;100.00;99650.97;4905407;57;1142988;-70
2023/10/28 23:28:52;;;;;;;23.67;16.40;;;;;;;8.97;100.00;99647.42;4909336;57;1140760;-77